Time;durP1;ratioP1;P1;durP2;ratioP2;P2;SDS_P1;SDS_P2;PMS_P1;PMS_P2;Temp;Humidity;BMP_temperature;BMP_pressure;BME280_temperature;BME280_humidity;BME280_pressure;Samples;Min_cycle;Max_cycle;Signal;HPM_P1;HPM_P2
2023/06/18 00:00:00;;;;;;;11.90;10.80;;;;;;;10.66;91.95;97673.45;106789;1276;22560;-75
2023/06/18 00:02:29;;;;;;;11.90;10.80;;;;;;;10.57;92.92;97675.90;106804;1276;23887;-75
2023/06/18 00:04:57;;;;;;;12.30;11.00;;;;;;;10.55;93.21;97676.11;106784;1276;22557;-75
2023/06/18 00:07:25;;;;;;;12.80;11.60;;;;;;;10.53;93.73;97674.33;106852;1276;22542;-75
2023/06/18 00:09:53;;;;;;;12.20;10.90;;;;;;;10.50;94.30;97675.60;106786;1276;22525;-76
2023/06/18 00:12:21;;;;;;;12.70;11.50;;;;;;;10.44;94.61;97681.56;106727;1276;25350;-75
2023/06/18 00:14:49;;;;;;;12.60;11.30;;;;;;;10.28;94.48;97654.61;106797;1276;23159;-76
2023/06/18 00:17:17;;;;;;;13.90;11.40;;;;;;;10.43;94.73;97680.35;106803;1276;24238;-75
2023/06/18 00:19:45;;;;;;;13.20;11.60;;;;;;;10.38;94.64;97680.23;106585;1276;22540;-75
2023/06/18 00:22:14;;;;;;;14.80;11.80;;;;;;;10.38;95.45;97678.65;106959;1276;22865;-75
2023/06/18 00:24:43;;;;;;;13.40;12.20;;;;;;;10.35;95.01;97674.61;106782;1276;22626;-75
2023/06/18 00:27:11;;;;;;;13.30;12.00;;;;;;;10.36;94.72;97672.81;106793;1276;22627;-75
2023/06/18 00:29:40;;;;;;;12.60;11.30;;;;;;;10.39;95.75;97672.69;106824;1276;25326;-75
2023/06/18 00:32:08;;;;;;;13.10;11.80;;;;;;;10.43;95.92;97676.20;106826;1276;25067;-75
2023/06/18 00:34:36;;;;;;;12.80;11.70;;;;;;;10.46;96.17;97671.35;106520;1276;24347;-75
2023/06/18 00:37:09;;;;;;;12.60;11.50;;;;;;;10.43;95.92;97672.98;107077;1276;22659;-75
2023/06/18 00:39:38;;;;;;;13.70;12.40;;;;;;;10.40;95.70;97677.24;107150;1276;25268;-75
2023/06/18 00:42:07;;;;;;;15.10;13.70;;;;;;;10.38;96.38;97675.46;106668;1276;25244;-75
2023/06/18 00:44:40;;;;;;;14.80;13.50;;;;;;;10.42;96.20;97674.29;106515;1276;24424;-76
2023/06/18 00:47:13;;;;;;;14.70;13.40;;;;;;;10.43;95.60;97671.48;106518;1276;25272;-75
2023/06/18 00:49:42;;;;;;;13.30;12.00;;;;;;;10.40;95.49;97670.79;106772;1276;22536;-76
2023/06/18 00:52:14;;;;;;;14.00;12.70;;;;;;;10.38;95.45;97671.31;106814;1276;24246;-76
2023/06/18 00:54:46;;;;;;;14.00;12.80;;;;;;;10.44;95.69;97669.49;106796;1276;22781;-75
2023/06/18 00:57:15;;;;;;;15.20;13.80;;;;;;;10.40;95.86;97664.86;107001;1276;23871;-75
2023/06/18 00:59:43;;;;;;;14.20;12.90;;;;;;;10.37;96.48;97663.63;106962;1276;22533;-75
2023/06/18 01:02:12;;;;;;;15.20;13.80;;;;;;;10.42;96.91;97663.41;106799;1276;22992;-75
2023/06/18 01:04:45;;;;;;;16.30;14.80;;;;;;;10.47;97.36;97666.39;106816;1276;22524;-75
2023/06/18 01:07:14;;;;;;;15.50;14.00;;;;;;;10.52;97.71;97665.31;107042;1276;22762;-75
2023/06/18 01:09:55;;;;;;;15.80;14.30;;;;;;;10.54;97.70;97662.92;106826;1276;22629;-75
2023/06/18 01:12:27;;;;;;;16.20;14.80;;;;;;;10.54;98.10;97665.26;106794;1276;22702;-75
2023/06/18 01:14:56;;;;;;;16.80;15.30;;;;;;;10.49;97.72;97662.57;106855;1276;25265;-75
2023/06/18 01:17:33;;;;;;;17.30;15.70;;;;;;;10.48;97.97;97656.18;106794;1276;25097;-75
2023/06/18 01:20:09;;;;;;;16.00;14.60;;;;;;;10.45;98.24;97654.18;106828;1276;22543;-75
2023/06/18 01:22:53;;;;;;;15.90;14.30;;;;;;;10.42;98.43;97651.36;106802;1276;22563;-75
2023/06/18 01:25:22;;;;;;;15.50;14.00;;;;;;;10.41;98.49;97659.00;106812;1276;25375;-75
2023/06/18 01:27:53;;;;;;;16.10;14.70;;;;;;;10.62;99.64;97661.95;106847;1276;25273;-75
2023/06/18 01:30:23;;;;;;;15.00;13.60;;;;;;;11.06;99.80;97657.89;106936;1276;22521;-75
2023/06/18 01:32:56;;;;;;;16.30;14.90;;;;;;;11.29;97.78;97651.66;106789;1276;22588;-75
2023/06/18 01:35:24;;;;;;;15.90;14.50;;;;;;;11.40;97.21;97648.73;106793;1276;25393;-75
2023/06/18 01:37:52;;;;;;;16.20;14.70;;;;;;;11.37;96.67;97651.92;106826;1276;22519;-75
2023/06/18 01:40:39;;;;;;;18.00;16.50;;;;;;;11.33;97.43;97653.55;106886;1276;22534;-75
2023/06/18 01:43:17;;;;;;;20.10;18.40;;;;;;;11.60;98.41;97652.58;106790;1276;22555;-75
2023/06/18 01:46:07;;;;;;;18.20;14.70;;;;;;;11.93;99.07;97657.09;106783;1276;25657;-76
2023/06/18 01:48:39;;;;;;;17.70;15.90;;;;;;;12.04;96.04;97664.02;106940;1276;24258;-76
2023/06/18 01:51:11;;;;;;;15.10;13.70;;;;;;;11.87;97.70;97660.98;106885;1268;22528;-76
2023/06/18 01:53:41;;;;;;;18.00;16.40;;;;;;;11.98;96.03;97667.22;106773;1276;23067;-75
2023/06/18 01:56:09;;;;;;;17.80;16.20;;;;;;;11.70;94.72;97670.70;106789;1276;22604;-75
2023/06/18 01:58:41;;;;;;;18.80;16.90;;;;;;;11.74;98.19;97666.34;106905;1276;22536;-75
2023/06/18 02:01:11;;;;;;;16.30;14.80;;;;;;;12.16;98.20;97671.46;106901;1276;22518;-75
2023/06/18 02:03:40;;;;;;;15.60;14.10;;;;;;;12.00;94.54;97672.27;106915;1276;22543;-75
2023/06/18 02:06:08;;;;;;;18.50;17.00;;;;;;;11.85;94.56;97678.15;106992;1276;23885;-75
2023/06/18 02:08:36;;;;;;;21.10;19.20;;;;;;;11.96;97.95;97676.07;106828;1276;22965;-75
2023/06/18 02:11:04;;;;;;;19.50;17.90;;;;;;;12.27;97.43;97681.73;106540;1276;22531;-75
2023/06/18 02:13:33;;;;;;;22.10;20.10;;;;;;;12.32;95.40;97677.63;106710;1276;23272;-74
2023/06/18 02:16:01;;;;;;;17.20;15.70;;;;;;;12.57;98.62;97681.31;106869;1276;22576;-74
2023/06/18 02:18:32;;;;;;;23.70;21.60;;;;;;;12.99;99.85;97680.88;106929;1276;25340;-75
2023/06/18 02:21:00;;;;;;;21.50;19.70;;;;;;;13.41;99.34;97676.05;106933;1276;22783;-75
2023/06/18 02:23:28;;;;;;;21.30;19.30;;;;;;;13.74;97.91;97679.52;106963;1276;25394;-74
2023/06/18 02:25:57;;;;;;;19.50;17.80;;;;;;;13.76;94.56;97683.45;106894;1276;22526;-76
2023/06/18 02:28:26;;;;;;;20.20;18.40;;;;;;;13.30;93.10;97683.30;106717;1276;24334;-75
2023/06/18 02:30:55;;;;;;;18.00;16.20;;;;;;;13.16;93.70;97683.32;106762;1276;25490;-75
2023/06/18 02:33:23;;;;;;;17.60;15.70;;;;;;;13.26;94.99;97678.83;106978;1276;22647;-76
2023/06/18 02:35:52;;;;;;;19.50;17.70;;;;;;;13.16;93.05;97685.95;106927;1276;25265;-75
2023/06/18 02:38:20;;;;;;;17.70;16.10;;;;;;;13.01;94.15;97683.73;106753;1276;25258;-76
2023/06/18 02:40:48;;;;;;;18.00;16.40;;;;;;;13.26;96.21;97685.44;106957;1276;22774;-76
2023/06/18 02:43:16;;;;;;;19.90;18.00;;;;;;;13.14;92.31;97689.95;106765;1276;25287;-76
2023/06/18 02:45:44;;;;;;;16.30;14.80;;;;;;;13.00;93.91;97689.09;106971;1276;22523;-77
2023/06/18 02:48:13;;;;;;;16.90;15.30;;;;;;;13.18;94.56;97689.58;106877;1276;22522;-76
2023/06/18 02:50:42;;;;;;;17.40;15.70;;;;;;;13.20;92.28;97689.46;106790;1276;22636;-76
2023/06/18 02:53:10;;;;;;;17.60;16.10;;;;;;;12.71;90.34;97690.51;106814;1276;24689;-76
2023/06/18 02:55:41;;;;;;;16.30;14.90;;;;;;;12.37;91.69;97692.30;106915;1276;24227;-76
2023/06/18 02:58:28;;;;;;;17.10;15.60;;;;;;;12.15;90.92;97697.04;106715;1276;22529;-76
2023/06/18 03:01:00;;;;;;;19.50;17.80;;;;;;;11.69;90.43;97695.73;106886;1254;22777;-76
2023/06/18 03:03:31;;;;;;;19.10;17.50;;;;;;;11.50;91.30;97700.70;106517;1276;24378;-76
2023/06/18 03:05:59;;;;;;;18.80;17.10;;;;;;;11.29;91.29;97703.66;106840;1276;22602;-76
2023/06/18 03:08:27;;;;;;;19.00;17.30;;;;;;;11.10;91.50;97707.28;106611;1276;24269;-76
2023/06/18 03:10:56;;;;;;;17.40;15.80;;;;;;;11.01;91.81;97710.86;106647;1276;22647;-76
2023/06/18 03:13:24;;;;;;;17.20;15.80;;;;;;;11.30;96.57;97705.94;106788;1276;23118;-75
2023/06/18 03:15:55;;;;;;;19.40;17.70;;;;;;;11.57;93.17;97710.09;106807;1276;22527;-76
2023/06/18 03:18:25;;;;;;;21.30;19.30;;;;;;;11.56;93.39;97710.58;106793;1276;22655;-76
2023/06/18 03:20:53;;;;;;;22.00;20.00;;;;;;;11.75;93.96;97707.60;106600;1276;22570;-76
2023/06/18 03:23:22;;;;;;;21.40;19.70;;;;;;;11.96;94.66;97709.59;106843;1272;22662;-76
2023/06/18 03:25:50;;;;;;;20.00;18.00;;;;;;;12.17;94.24;97711.02;106648;1276;24055;-76
2023/06/18 03:28:24;;;;;;;21.50;19.30;;;;;;;12.41;95.24;97715.26;106798;1276;22579;-76
2023/06/18 03:30:53;;;;;;;20.40;18.40;;;;;;;12.70;95.26;97714.79;106891;1276;22524;-76
2023/06/18 03:33:21;;;;;;;20.20;18.40;;;;;;;12.83;93.24;97713.30;106864;1276;22803;-76
2023/06/18 03:35:51;;;;;;;22.50;20.50;;;;;;;12.95;94.40;97709.93;106815;1276;23037;-75
2023/06/18 03:38:19;;;;;;;22.70;20.90;;;;;;;13.18;94.14;97714.41;106845;1276;22550;-75
2023/06/18 03:40:48;;;;;;;21.50;19.60;;;;;;;13.36;94.71;97717.21;106851;1273;25274;-76
2023/06/18 03:43:17;;;;;;;20.80;18.90;;;;;;;13.47;93.02;97723.30;106802;1276;22569;-76
2023/06/18 03:45:45;;;;;;;22.40;20.10;;;;;;;13.55;93.52;97722.94;106774;1276;25182;-76
2023/06/18 03:48:14;;;;;;;20.60;18.70;;;;;;;13.68;92.99;97723.48;106808;1276;22533;-75
2023/06/18 03:50:44;;;;;;;17.80;16.20;;;;;;;13.73;93.01;97721.46;106794;1276;22524;-75
2023/06/18 03:53:13;;;;;;;19.50;17.50;;;;;;;13.86;92.80;97724.95;106923;1276;22543;-75
2023/06/18 03:55:43;;;;;;;19.80;18.00;;;;;;;13.99;93.43;97721.14;106553;1276;23941;-77
2023/06/18 03:58:16;;;;;;;20.00;17.90;;;;;;;14.22;93.97;97722.51;106811;1276;26509;-75
2023/06/18 04:00:47;;;;;;;18.50;16.70;;;;;;;14.42;93.02;97721.48;106842;1276;25436;-76
2023/06/18 04:03:15;;;;;;;19.90;15.90;;;;;;;14.56;92.79;97721.48;106877;1276;26594;-77
2023/06/18 04:05:43;;;;;;;19.70;17.90;;;;;;;14.66;91.96;97725.41;106826;1276;24247;-77
2023/06/18 04:08:12;;;;;;;20.10;18.40;;;;;;;14.45;91.23;97721.11;106834;1276;22630;-76
2023/06/18 04:10:41;;;;;;;22.40;20.30;;;;;;;14.33;91.64;97728.29;106544;1276;24255;-75
2023/06/18 04:13:15;;;;;;;18.70;17.00;;;;;;;14.42;92.56;97724.41;106811;1276;22578;-75
2023/06/18 04:15:43;;;;;;;18.70;17.00;;;;;;;14.56;92.23;97726.58;106903;1276;22603;-75
2023/06/18 04:18:13;;;;;;;20.80;18.20;;;;;;;14.69;91.81;97733.46;106886;1276;22529;-74
2023/06/18 04:20:42;;;;;;;20.30;18.40;;;;;;;14.73;91.22;97732.52;106837;1276;23286;-74
2023/06/18 04:23:12;;;;;;;19.50;17.80;;;;;;;14.76;91.58;97732.64;106870;1276;23151;-76
2023/06/18 04:25:40;;;;;;;21.10;19.40;;;;;;;14.96;92.72;97727.19;106644;1276;22538;-76
2023/06/18 04:28:08;;;;;;;19.80;18.20;;;;;;;15.18;92.17;97730.12;106585;1276;26815;-75
2023/06/18 04:30:36;;;;;;;24.50;22.30;;;;;;;15.21;91.09;97734.05;106552;1276;25598;-75
2023/06/18 04:33:05;;;;;;;22.90;20.80;;;;;;;15.08;90.17;97741.17;106806;1255;22525;-75
2023/06/18 04:35:34;;;;;;;23.60;21.40;;;;;;;14.94;90.20;97744.45;106857;1276;22532;-75
2023/06/18 04:38:02;;;;;;;25.70;23.40;;;;;;;14.83;90.50;97747.20;106792;1276;25396;-77
2023/06/18 04:40:30;;;;;;;24.30;22.10;;;;;;;14.73;90.41;97746.67;106818;1276;25301;-76
2023/06/18 04:42:58;;;;;;;25.00;22.60;;;;;;;14.60;90.38;97747.29;106622;1276;24367;-76
2023/06/18 04:45:32;;;;;;;23.70;21.70;;;;;;;14.47;90.31;97756.52;106850;1276;22547;-75
2023/06/18 04:48:00;;;;;;;24.10;21.80;;;;;;;14.38;90.72;97755.45;106824;1276;23366;-75
2023/06/18 04:50:29;;;;;;;22.40;20.50;;;;;;;14.33;90.91;97755.39;106660;1276;25554;-75
2023/06/18 04:52:57;;;;;;;22.50;20.50;;;;;;;14.37;91.04;97760.69;106806;1276;22521;-75
2023/06/18 04:55:25;;;;;;;23.10;20.90;;;;;;;14.41;91.22;97761.16;106546;1276;22535;-76
2023/06/18 04:57:54;;;;;;;20.90;19.10;;;;;;;14.43;91.29;97759.05;106764;1276;26510;-75
2023/06/18 05:00:23;;;;;;;21.50;19.50;;;;;;;14.52;91.44;97757.89;106600;1276;22570;-75
2023/06/18 05:02:52;;;;;;;22.90;20.80;;;;;;;14.59;91.97;97756.77;106535;1276;25455;-74
2023/06/18 05:05:20;;;;;;;21.70;19.60;;;;;;;14.56;91.71;97754.49;106794;1276;24242;-75
2023/06/18 05:07:50;;;;;;;21.60;19.70;;;;;;;14.56;91.74;97758.10;106543;1276;22547;-74
2023/06/18 05:10:19;;;;;;;22.30;20.40;;;;;;;14.61;91.59;97756.39;106573;1276;25390;-75
2023/06/18 05:12:49;;;;;;;23.20;21.20;;;;;;;14.66;91.58;97758.91;106869;1276;22534;-76
2023/06/18 05:15:18;;;;;;;21.80;19.90;;;;;;;14.72;91.46;97762.09;106575;1276;138614;-75
2023/06/18 05:17:46;;;;;;;19.80;17.90;;;;;;;14.78;91.21;97763.84;106594;1276;22826;-75
2023/06/18 05:20:17;;;;;;;19.20;17.50;;;;;;;14.89;91.44;97766.20;106802;1276;24124;-75
2023/06/18 05:22:45;;;;;;;19.30;17.60;;;;;;;14.97;91.43;97766.60;106540;1276;22669;-75
2023/06/18 05:25:14;;;;;;;18.80;17.10;;;;;;;15.07;91.38;97768.67;106829;1276;25242;-75
2023/06/18 05:27:43;;;;;;;21.20;19.20;;;;;;;15.19;90.52;97772.66;106855;1276;22940;-76
2023/06/18 05:30:11;;;;;;;17.40;15.80;;;;;;;15.22;90.30;97771.72;106574;1276;25278;-77
2023/06/18 05:32:40;;;;;;;18.40;16.60;;;;;;;15.31;90.46;97771.64;106782;1276;22537;-76
2023/06/18 05:35:11;;;;;;;18.00;16.40;;;;;;;15.44;90.51;97777.92;106813;1257;22592;-76
2023/06/18 05:37:50;;;;;;;20.20;18.30;;;;;;;15.56;90.15;97781.38;106768;1276;22743;-76
2023/06/18 05:40:18;;;;;;;20.40;18.60;;;;;;;15.67;89.93;97788.19;106588;1270;24238;-74
2023/06/18 05:42:46;;;;;;;19.50;17.60;;;;;;;15.77;89.84;97782.81;106632;1276;22651;-76
2023/06/18 05:45:15;;;;;;;21.20;19.30;;;;;;;15.90;89.73;97785.52;106744;1276;23295;-76
2023/06/18 05:47:44;;;;;;;19.30;17.60;;;;;;;16.02;89.57;97788.42;106771;1276;24406;-77
2023/06/18 05:50:15;;;;;;;21.30;19.40;;;;;;;16.14;89.58;97792.86;106820;1276;22531;-77
2023/06/18 05:52:43;;;;;;;21.40;19.40;;;;;;;16.25;88.99;97795.48;106766;1276;22532;-76
2023/06/18 05:55:11;;;;;;;20.70;18.60;;;;;;;16.34;88.73;97790.33;106787;1276;24480;-76
2023/06/18 05:57:39;;;;;;;21.30;19.00;;;;;;;16.44;88.69;97788.40;106758;1276;25303;-76
2023/06/18 06:00:10;;;;;;;19.40;17.50;;;;;;;16.54;88.23;97787.70;106658;1276;24445;-78
2023/06/18 06:02:41;;;;;;;19.90;18.10;;;;;;;16.66;87.94;97788.76;106786;1276;25334;-76
2023/06/18 06:05:14;;;;;;;22.40;20.40;;;;;;;16.72;86.67;97788.56;106784;1276;24198;-76
2023/06/18 06:07:42;;;;;;;22.10;19.90;;;;;;;16.74;86.35;97786.91;106787;1276;25495;-76
2023/06/18 06:10:18;;;;;;;21.00;19.10;;;;;;;16.76;86.26;97784.88;106674;1276;25345;-76
2023/06/18 06:12:48;;;;;;;18.70;16.90;;;;;;;16.84;86.64;97786.80;106775;1276;25569;-76
2023/06/18 06:15:16;;;;;;;16.30;14.80;;;;;;;16.99;87.07;97787.55;106828;1276;24457;-76
2023/06/18 06:17:45;;;;;;;15.50;13.90;;;;;;;17.21;87.13;97786.58;106599;1276;22576;-74
2023/06/18 06:20:14;;;;;;;16.50;15.00;;;;;;;17.52;86.23;97786.34;106763;1276;22540;-74
2023/06/18 06:22:43;;;;;;;18.10;14.00;;;;;;;17.63;84.22;97785.89;106811;1276;22527;-74
2023/06/18 06:25:11;;;;;;;13.20;11.90;;;;;;;17.73;84.55;97789.66;106717;1276;24192;-73
2023/06/18 06:27:41;;;;;;;14.70;13.20;;;;;;;17.98;85.15;97786.44;106540;1276;22510;-73
2023/06/18 06:30:10;;;;;;;16.90;14.70;;;;;;;18.18;82.98;97788.27;106754;1276;22542;-74
2023/06/18 06:32:38;;;;;;;15.70;14.20;;;;;;;18.29;83.51;97787.83;106661;1276;22541;-72
2023/06/18 06:35:06;;;;;;;15.10;13.30;;;;;;;18.36;82.06;97786.77;106800;1276;25296;-72
2023/06/18 06:37:35;;;;;;;17.40;15.70;;;;;;;18.37;81.16;97787.34;106777;1276;25223;-72
2023/06/18 06:40:07;;;;;;;16.30;14.90;;;;;;;18.33;81.56;97793.33;106596;1276;25332;-73
2023/06/18 06:42:37;;;;;;;12.90;11.50;;;;;;;18.44;81.66;97789.63;106761;1276;22573;-73
2023/06/18 06:45:27;;;;;;;14.90;13.20;;;;;;;18.58;78.61;97786.13;106810;1276;22541;-73
2023/06/18 06:48:14;;;;;;;14.20;12.60;;;;;;;18.68;79.86;97790.18;106800;1276;22647;-73
2023/06/18 06:51:01;;;;;;;14.60;13.20;;;;;;;18.84;79.20;97794.25;106910;1276;22528;-73
2023/06/18 06:53:33;;;;;;;16.30;14.70;;;;;;;18.98;79.22;97794.70;106849;1276;22523;-73
2023/06/18 06:56:01;;;;;;;14.30;12.90;;;;;;;18.94;77.08;97797.66;106685;1276;22644;-74
2023/06/18 06:58:30;;;;;;;14.70;12.10;;;;;;;18.89;75.60;97793.98;106760;1276;22533;-76
2023/06/18 07:00:58;;;;;;;14.80;13.40;;;;;;;18.97;75.55;97796.39;106823;1276;22595;-73
2023/06/18 07:03:26;;;;;;;13.00;11.80;;;;;;;19.00;75.16;97793.74;106946;1276;26508;-74
2023/06/18 07:05:54;;;;;;;13.00;11.30;;;;;;;19.00;75.55;97793.35;107028;1276;22570;-73
2023/06/18 07:08:22;;;;;;;12.80;11.50;;;;;;;19.06;74.91;97793.47;106903;1276;22808;-73
2023/06/18 07:10:50;;;;;;;14.60;11.40;;;;;;;19.09;75.62;97793.61;106787;1276;22520;-74
2023/06/18 07:13:18;;;;;;;12.50;11.10;;;;;;;19.17;76.02;97792.08;106819;1276;24255;-74
2023/06/18 07:15:46;;;;;;;11.70;10.50;;;;;;;19.39;76.91;97792.06;106821;1257;22801;-73
2023/06/18 07:18:14;;;;;;;13.10;10.60;;;;;;;19.58;76.44;97790.11;106750;1254;22521;-75
2023/06/18 07:20:42;;;;;;;9.40;8.30;;;;;;;19.64;73.68;97788.98;106770;1276;23019;-75
2023/06/18 07:23:10;;;;;;;8.90;8.00;;;;;;;19.40;71.55;97788.58;106796;1276;22538;-75
2023/06/18 07:25:38;;;;;;;10.60;9.30;;;;;;;19.19;71.24;97798.05;106811;1276;24243;-75
2023/06/18 07:28:07;;;;;;;11.80;9.60;;;;;;;19.09;71.02;97798.79;106769;1276;23015;-74
2023/06/18 07:30:35;;;;;;;9.70;8.70;;;;;;;19.11;72.16;97804.11;106771;1276;22532;-75
2023/06/18 07:33:03;;;;;;;10.20;8.80;;;;;;;19.11;72.16;97803.56;106738;1276;23952;-76
2023/06/18 07:35:31;;;;;;;10.60;8.90;;;;;;;19.03;72.29;97803.88;107125;1276;22554;-75
2023/06/18 07:37:59;;;;;;;10.30;8.60;;;;;;;18.91;72.28;97804.31;106988;1276;24393;-78
2023/06/18 07:40:30;;;;;;;9.10;7.90;;;;;;;18.78;71.98;97804.30;106793;1276;23105;-79
2023/06/18 07:43:00;;;;;;;8.60;7.50;;;;;;;18.58;71.82;97804.15;107129;1276;24220;-80
2023/06/18 07:45:28;;;;;;;8.70;7.20;;;;;;;18.45;72.04;97806.01;107277;1276;22780;-78
2023/06/18 07:47:56;;;;;;;9.50;7.40;;;;;;;18.35;72.09;97807.48;107219;1276;25265;-80
2023/06/18 07:50:24;;;;;;;8.60;7.30;;;;;;;18.27;72.07;97804.25;107184;1276;22525;-79
2023/06/18 07:52:52;;;;;;;9.00;8.10;;;;;;;18.25;72.29;97803.48;107065;1276;22528;-79
2023/06/18 07:55:20;;;;;;;10.00;8.30;;;;;;;18.28;72.25;97805.49;107133;1276;22640;-79
2023/06/18 07:57:48;;;;;;;9.40;8.40;;;;;;;18.32;72.98;97807.95;107188;1276;25221;-81
2023/06/18 08:00:16;;;;;;;9.10;7.70;;;;;;;18.39;73.43;97806.95;107104;1276;22633;-77
2023/06/18 08:02:46;;;;;;;9.80;8.70;;;;;;;18.62;72.98;97804.08;107161;1276;22524;-78
2023/06/18 08:05:14;;;;;;;11.40;9.30;;;;;;;18.82;73.23;97806.34;107173;1276;22648;-80
2023/06/18 08:07:42;;;;;;;9.90;8.90;;;;;;;19.07;72.69;97812.23;107215;1276;22525;-75
2023/06/18 08:10:10;;;;;;;10.90;9.60;;;;;;;19.12;72.26;97810.91;106902;1276;22521;-76
2023/06/18 08:12:38;;;;;;;10.60;7.70;;;;;;;19.17;71.76;97812.98;106732;1276;25433;-76
2023/06/18 08:15:06;;;;;;;8.40;7.10;;;;;;;19.17;70.57;97815.48;106776;1276;22546;-76
2023/06/18 08:17:35;;;;;;;13.50;7.60;;;;;;;19.16;69.08;97817.56;106832;1276;22523;-77
2023/06/18 08:20:04;;;;;;;9.30;8.10;;;;;;;19.10;68.64;97823.30;106911;1276;24247;-77
2023/06/18 08:22:32;;;;;;;9.00;7.20;;;;;;;19.03;69.23;97818.85;106784;1276;24299;-78
2023/06/18 08:25:00;;;;;;;6.40;5.80;;;;;;;19.04;67.87;97822.30;107069;1276;24192;-77
2023/06/18 08:27:28;;;;;;;6.70;6.00;;;;;;;19.03;67.71;97820.64;106746;1276;24295;-77
2023/06/18 08:29:56;;;;;;;7.50;6.70;;;;;;;19.06;66.82;97818.23;106690;1276;22521;-77
2023/06/18 08:32:24;;;;;;;7.90;7.00;;;;;;;19.30;67.72;97816.86;106737;1276;25312;-76
2023/06/18 08:34:53;;;;;;;9.40;7.60;;;;;;;19.57;67.45;97809.21;106819;1276;24416;-76
2023/06/18 08:37:21;;;;;;;8.20;6.60;;;;;;;19.81;66.86;97814.09;106714;1276;22551;-77
2023/06/18 08:39:49;;;;;;;7.50;5.90;;;;;;;19.84;65.56;97808.98;106758;1276;22652;-77
2023/06/18 08:42:20;;;;;;;8.70;7.80;;;;;;;19.79;65.65;97809.83;106863;1276;24223;-77
2023/06/18 08:44:50;;;;;;;8.50;7.20;;;;;;;19.74;65.91;97812.78;107072;1276;24063;-78
2023/06/18 08:47:19;;;;;;;8.80;7.30;;;;;;;19.77;66.62;97804.40;107093;1276;22544;-78
2023/06/18 08:49:50;;;;;;;7.50;6.70;;;;;;;20.02;66.65;97803.94;107086;1276;22540;-78
2023/06/18 08:52:20;;;;;;;8.20;6.80;;;;;;;20.31;64.31;97807.80;106796;1276;22633;-78
2023/06/18 08:54:56;;;;;;;7.70;6.40;;;;;;;20.44;64.62;97797.69;107033;1276;22538;-78
2023/06/18 08:57:52;;;;;;;8.70;6.60;;;;;;;20.66;64.68;97796.03;107067;1276;25250;-77
2023/06/18 09:00:21;;;;;;;7.90;6.10;;;;;;;20.83;63.63;97785.82;107267;1276;22746;-78
2023/06/18 09:02:52;;;;;;;8.20;6.10;;;;;;;21.05;64.34;97785.48;107440;1276;22536;-78
2023/06/18 09:05:21;;;;;;;6.00;5.30;;;;;;;21.30;63.73;97787.09;107094;1276;25263;-78
2023/06/18 09:07:50;;;;;;;9.40;5.90;;;;;;;21.55;62.54;97785.67;107025;1276;24075;-78
2023/06/18 09:10:18;;;;;;;8.20;6.70;;;;;;;21.81;62.30;97788.09;106758;1276;25288;-78
2023/06/18 09:12:47;;;;;;;8.50;6.90;;;;;;;22.04;60.39;97789.35;107065;1276;22632;-78
2023/06/18 09:15:15;;;;;;;8.70;6.70;;;;;;;22.16;60.56;97785.09;107063;1276;25373;-78
2023/06/18 09:17:53;;;;;;;6.40;5.50;;;;;;;22.05;59.77;97787.55;106732;1276;22541;-78
2023/06/18 09:20:21;;;;;;;6.40;5.50;;;;;;;21.73;57.98;97786.66;107094;1276;25472;-78
2023/06/18 09:22:50;;;;;;;9.20;6.40;;;;;;;21.40;57.99;97790.13;107012;1276;25382;-79
2023/06/18 09:25:19;;;;;;;7.20;6.50;;;;;;;21.15;57.56;97789.45;106794;1276;22827;-78
2023/06/18 09:27:49;;;;;;;7.30;5.90;;;;;;;20.92;58.94;97784.05;107185;1276;25135;-77
2023/06/18 09:30:23;;;;;;;6.60;5.90;;;;;;;21.13;58.73;97784.52;106723;1276;25386;-79
2023/06/18 09:32:53;;;;;;;5.80;5.20;;;;;;;21.38;58.52;97784.77;106952;1276;23238;-78
2023/06/18 09:35:21;;;;;;;8.10;5.90;;;;;;;21.53;57.09;97784.33;106963;1276;23286;-77
2023/06/18 09:37:50;;;;;;;7.90;5.90;;;;;;;21.53;57.23;97791.06;106713;1276;22545;-77
2023/06/18 09:40:20;;;;;;;6.70;6.00;;;;;;;21.35;57.26;97790.37;106623;1276;25471;-78
2023/06/18 09:42:49;;;;;;;7.20;5.50;;;;;;;21.05;57.67;97792.00;107119;1276;24199;-77
2023/06/18 09:45:18;;;;;;;6.50;5.40;;;;;;;20.84;56.94;97797.41;106672;1276;23889;-77
2023/06/18 09:47:47;;;;;;;7.00;4.60;;;;;;;20.52;57.22;97793.05;106647;1276;26523;-77
2023/06/18 09:50:16;;;;;;;5.40;4.50;;;;;;;20.43;57.36;97792.21;106833;1273;22605;-77
2023/06/18 09:52:50;;;;;;;6.00;5.00;;;;;;;20.41;56.66;97794.37;107043;1276;24121;-77
2023/06/18 09:55:32;;;;;;;6.30;5.40;;;;;;;20.31;56.57;97795.36;106554;1276;25479;-77
2023/06/18 09:58:01;;;;;;;6.30;5.60;;;;;;;20.17;57.15;97797.16;106672;1276;22524;-77
2023/06/18 10:00:30;;;;;;;9.50;6.00;;;;;;;20.13;57.98;97794.35;106692;1276;24686;-77
2023/06/18 10:03:06;;;;;;;7.30;6.30;;;;;;;20.11;58.63;97793.77;106706;1263;22650;-76
2023/06/18 10:05:35;;;;;;;7.70;6.30;;;;;;;20.08;59.29;97790.67;106847;1276;22528;-77
2023/06/18 10:08:05;;;;;;;7.30;6.50;;;;;;;20.17;59.52;97789.73;106802;1256;22763;-77
2023/06/18 10:10:36;;;;;;;8.70;6.20;;;;;;;20.28;59.49;97791.17;106772;1276;25304;-77
2023/06/18 10:13:09;;;;;;;6.50;5.90;;;;;;;20.36;59.70;97786.08;106727;1276;24286;-77
2023/06/18 10:15:40;;;;;;;7.70;6.40;;;;;;;20.44;59.34;97782.13;106677;1276;22533;-78
2023/06/18 10:18:11;;;;;;;7.20;6.50;;;;;;;20.45;59.13;97781.13;106772;1276;24240;-77
2023/06/18 10:20:41;;;;;;;7.50;5.90;;;;;;;20.43;59.36;97778.14;106822;1253;24393;-78
2023/06/18 10:23:10;;;;;;;8.10;5.90;;;;;;;20.56;59.22;97773.96;106699;1276;22895;-78
2023/06/18 10:25:39;;;;;;;7.80;7.00;;;;;;;20.57;58.86;97754.20;106690;1276;26623;-78
2023/06/18 10:28:07;;;;;;;7.60;6.10;;;;;;;20.82;58.69;97766.93;107125;1276;22562;-78
2023/06/18 10:30:36;;;;;;;7.90;6.20;;;;;;;20.96;58.46;97764.23;107003;1276;24230;-79
2023/06/18 10:33:04;;;;;;;7.90;6.50;;;;;;;21.07;57.85;97767.34;106808;1276;23457;-75
2023/06/18 10:35:34;;;;;;;6.80;6.20;;;;;;;21.07;58.13;97771.05;106779;1276;22527;-75
2023/06/18 10:38:05;;;;;;;6.80;6.00;;;;;;;21.13;58.03;97767.59;106720;1276;22552;-75
2023/06/18 10:40:38;;;;;;;6.90;6.10;;;;;;;21.22;57.80;97769.36;106716;1276;22667;-75
2023/06/18 10:43:09;;;;;;;6.90;6.20;;;;;;;21.22;56.53;97774.67;106892;1276;22553;-75
2023/06/18 10:45:37;;;;;;;8.70;6.00;;;;;;;21.19;57.10;97777.77;106811;1276;22528;-75
2023/06/18 10:48:15;;;;;;;7.20;6.40;;;;;;;21.21;56.73;97782.49;106745;1276;25287;-76
2023/06/18 10:51:13;;;;;;;6.60;5.90;;;;;;;21.18;56.68;97775.33;106750;1276;22534;-76
2023/06/18 10:53:43;;;;;;;6.80;6.10;;;;;;;21.21;57.16;97774.98;107083;1276;22673;-79
2023/06/18 10:56:16;;;;;;;9.00;6.30;;;;;;;21.20;56.99;97774.89;107134;1276;25304;-79
2023/06/18 10:58:44;;;;;;;8.60;6.70;;;;;;;21.16;57.44;97775.48;107176;1276;22534;-79
2023/06/18 11:01:26;;;;;;;7.00;6.30;;;;;;;21.20;57.54;97772.64;107135;1276;22533;-79
2023/06/18 11:04:01;;;;;;;7.00;6.20;;;;;;;21.36;57.34;97775.34;107057;1276;22762;-80
2023/06/18 11:06:30;;;;;;;6.90;6.20;;;;;;;21.48;55.98;97776.04;107179;1276;22532;-78
2023/06/18 11:08:58;;;;;;;6.80;6.10;;;;;;;21.68;55.30;97777.06;106716;1276;24193;-78
2023/06/18 11:11:27;;;;;;;9.40;6.20;;;;;;;21.96;55.38;97773.89;106697;1273;22534;-78
2023/06/18 11:13:55;;;;;;;6.80;5.50;;;;;;;22.29;55.56;97762.70;106816;1276;22622;-78
2023/06/18 11:16:23;;;;;;;8.40;5.90;;;;;;;22.57;54.23;97761.91;106733;1276;23042;-77
2023/06/18 11:18:55;;;;;;;6.50;5.60;;;;;;;22.87;54.14;97760.62;106984;1270;22531;-77
2023/06/18 11:21:23;;;;;;;7.20;6.00;;;;;;;23.15;53.04;97762.13;106940;1275;22561;-78
2023/06/18 11:23:53;;;;;;;8.50;5.60;;;;;;;23.28;53.17;97754.33;107127;1275;22642;-77
2023/06/18 11:26:21;;;;;;;6.00;5.40;;;;;;;23.48;53.71;97755.35;106917;1275;22923;-77